sensor_id;sensor_type;location;lat;lon;timestamp;P1;durP1;ratioP1;P2;durP2;ratioP2
6197;SDS011;3132;42.622;23.328;2022-11-20T00:00:25;8.87;;;8.27;;
6197;SDS011;3132;42.622;23.328;2022-11-20T00:02:50;9.00;;;8.23;;
6197;SDS011;3132;42.622;23.328;2022-11-20T00:05:15;8.57;;;8.17;;
6197;SDS011;3132;42.622;23.328;2022-11-20T00:07:41;8.60;;;8.20;;
6197;SDS011;3132;42.622;23.328;2022-11-20T00:10:06;8.60;;;8.20;;
6197;SDS011;3132;42.622;23.328;2022-11-20T00:12:32;8.90;;;8.40;;
6197;SDS011;3132;42.622;23.328;2022-11-20T00:14:58;8.70;;;8.30;;
6197;SDS011;3132;42.622;23.328;2022-11-20T00:17:23;10.00;;;9.40;;
6197;SDS011;3132;42.622;23.328;2022-11-20T00:19:48;8.50;;;7.90;;
6197;SDS011;3132;42.622;23.328;2022-11-20T00:22:14;8.53;;;7.93;;
6197;SDS011;3132;42.622;23.328;2022-11-20T00:24:39;7.87;;;7.57;;
6197;SDS011;3132;42.622;23.328;2022-11-20T00:27:04;8.47;;;7.93;;
6197;SDS011;3132;42.622;23.328;2022-11-20T00:29:30;9.10;;;8.70;;
6197;SDS011;3132;42.622;23.328;2022-11-20T00:31:55;9.27;;;8.80;;
6197;SDS011;3132;42.622;23.328;2022-11-20T00:34:20;9.30;;;8.87;;
6197;SDS011;3132;42.622;23.328;2022-11-20T00:36:46;8.53;;;8.17;;
6197;SDS011;3132;42.622;23.328;2022-11-20T00:39:11;7.90;;;7.57;;
6197;SDS011;3132;42.622;23.328;2022-11-20T00:41:36;8.77;;;8.30;;
6197;SDS011;3132;42.622;23.328;2022-11-20T00:44:02;8.27;;;7.77;;
6197;SDS011;3132;42.622;23.328;2022-11-20T00:46:27;8.87;;;8.40;;
6197;SDS011;3132;42.622;23.328;2022-11-20T00:48:53;8.27;;;7.60;;
6197;SDS011;3132;42.622;23.328;2022-11-20T00:51:20;8.23;;;7.83;;
6197;SDS011;3132;42.622;23.328;2022-11-20T00:53:48;8.60;;;8.07;;
6197;SDS011;3132;42.622;23.328;2022-11-20T00:56:15;8.30;;;7.90;;
6197;SDS011;3132;42.622;23.328;2022-11-20T00:58:43;9.07;;;8.63;;
6197;SDS011;3132;42.622;23.328;2022-11-20T01:03:36;8.50;;;8.10;;
6197;SDS011;3132;42.622;23.328;2022-11-20T01:06:04;8.40;;;8.00;;
6197;SDS011;3132;42.622;23.328;2022-11-20T01:08:32;8.63;;;8.03;;
6197;SDS011;3132;42.622;23.328;2022-11-20T01:11:00;8.30;;;7.90;;
6197;SDS011;3132;42.622;23.328;2022-11-20T01:13:26;8.17;;;7.87;;
6197;SDS011;3132;42.622;23.328;2022-11-20T01:16:09;9.00;;;8.33;;
6197;SDS011;3132;42.622;23.328;2022-11-20T01:18:35;8.63;;;8.13;;
6197;SDS011;3132;42.622;23.328;2022-11-20T01:21:23;8.80;;;8.30;;
6197;SDS011;3132;42.622;23.328;2022-11-20T01:23:48;7.90;;;7.50;;
6197;SDS011;3132;42.622;23.328;2022-11-20T01:26:17;7.90;;;7.60;;
6197;SDS011;3132;42.622;23.328;2022-11-20T01:28:48;7.90;;;7.60;;
6197;SDS011;3132;42.622;23.328;2022-11-20T01:33:44;8.13;;;7.67;;
6197;SDS011;3132;42.622;23.328;2022-11-20T01:36:10;7.57;;;7.07;;
6197;SDS011;3132;42.622;23.328;2022-11-20T01:38:37;8.30;;;7.90;;
6197;SDS011;3132;42.622;23.328;2022-11-20T01:41:02;8.23;;;7.83;;
6197;SDS011;3132;42.622;23.328;2022-11-20T01:43:28;8.67;;;8.27;;
6197;SDS011;3132;42.622;23.328;2022-11-20T01:48:44;9.00;;;8.20;;
6197;SDS011;3132;42.622;23.328;2022-11-20T01:51:33;7.37;;;7.07;;
6197;SDS011;3132;42.622;23.328;2022-11-20T01:54:05;8.10;;;7.80;;
6197;SDS011;3132;42.622;23.328;2022-11-20T01:56:34;8.70;;;8.07;;
6197;SDS011;3132;42.622;23.328;2022-11-20T01:59:04;8.30;;;7.90;;
6197;SDS011;3132;42.622;23.328;2022-11-20T02:01:32;8.20;;;7.90;;
6197;SDS011;3132;42.622;23.328;2022-11-20T02:03:58;8.40;;;7.90;;
6197;SDS011;3132;42.622;23.328;2022-11-20T02:06:26;8.20;;;7.80;;
6197;SDS011;3132;42.622;23.328;2022-11-20T02:08:54;7.87;;;7.47;;
6197;SDS011;3132;42.622;23.328;2022-11-20T02:11:20;7.90;;;7.60;;
6197;SDS011;3132;42.622;23.328;2022-11-20T02:13:46;8.53;;;8.13;;
6197;SDS011;3132;42.622;23.328;2022-11-20T02:16:31;7.93;;;7.57;;
6197;SDS011;3132;42.622;23.328;2022-11-20T02:19:01;8.53;;;7.93;;
6197;SDS011;3132;42.622;23.328;2022-11-20T02:21:48;8.10;;;7.80;;
6197;SDS011;3132;42.622;23.328;2022-11-20T02:24:15;8.17;;;7.67;;
6197;SDS011;3132;42.622;23.328;2022-11-20T02:26:50;7.83;;;7.47;;
6197;SDS011;3132;42.622;23.328;2022-11-20T02:29:25;8.00;;;7.70;;
6197;SDS011;3132;42.622;23.328;2022-11-20T02:31:55;8.07;;;7.77;;
6197;SDS011;3132;42.622;23.328;2022-11-20T02:34:23;8.67;;;8.37;;
6197;SDS011;3132;42.622;23.328;2022-11-20T02:36:49;8.70;;;8.30;;
6197;SDS011;3132;42.622;23.328;2022-11-20T02:39:16;8.97;;;8.50;;
6197;SDS011;3132;42.622;23.328;2022-11-20T02:41:44;8.57;;;8.07;;
6197;SDS011;3132;42.622;23.328;2022-11-20T02:44:09;8.00;;;7.70;;
6197;SDS011;3132;42.622;23.328;2022-11-20T02:46:35;8.97;;;8.47;;
6197;SDS011;3132;42.622;23.328;2022-11-20T02:49:03;9.13;;;8.53;;
6197;SDS011;3132;42.622;23.328;2022-11-20T02:51:29;7.37;;;7.03;;
6197;SDS011;3132;42.622;23.328;2022-11-20T02:53:55;8.57;;;8.07;;
6197;SDS011;3132;42.622;23.328;2022-11-20T02:56:20;8.50;;;8.07;;
6197;SDS011;3132;42.622;23.328;2022-11-20T02:58:46;8.90;;;8.30;;
6197;SDS011;3132;42.622;23.328;2022-11-20T03:01:11;8.40;;;8.00;;
6197;SDS011;3132;42.622;23.328;2022-11-20T03:03:37;8.73;;;8.33;;
6197;SDS011;3132;42.622;23.328;2022-11-20T03:06:02;8.87;;;8.30;;
6197;SDS011;3132;42.622;23.328;2022-11-20T03:08:27;9.40;;;8.70;;
6197;SDS011;3132;42.622;23.328;2022-11-20T03:10:53;8.13;;;7.57;;
6197;SDS011;3132;42.622;23.328;2022-11-20T03:13:18;8.97;;;8.20;;
6197;SDS011;3132;42.622;23.328;2022-11-20T03:15:44;8.60;;;8.20;;
6197;SDS011;3132;42.622;23.328;2022-11-20T03:18:09;7.63;;;7.13;;
6197;SDS011;3132;42.622;23.328;2022-11-20T03:20:34;8.07;;;7.67;;
6197;SDS011;3132;42.622;23.328;2022-11-20T03:23:00;8.33;;;7.93;;
6197;SDS011;3132;42.622;23.328;2022-11-20T03:25:26;8.40;;;8.10;;
6197;SDS011;3132;42.622;23.328;2022-11-20T03:27:51;8.17;;;7.87;;
6197;SDS011;3132;42.622;23.328;2022-11-20T03:30:17;8.23;;;7.83;;
6197;SDS011;3132;42.622;23.328;2022-11-20T03:32:42;8.83;;;8.30;;
6197;SDS011;3132;42.622;23.328;2022-11-20T03:35:08;8.00;;;7.60;;
6197;SDS011;3132;42.622;23.328;2022-11-20T03:37:34;7.80;;;7.47;;
6197;SDS011;3132;42.622;23.328;2022-11-20T03:39:59;7.93;;;7.57;;
6197;SDS011;3132;42.622;23.328;2022-11-20T03:42:25;8.90;;;8.43;;
6197;SDS011;3132;42.622;23.328;2022-11-20T03:45:09;8.40;;;7.80;;
6197;SDS011;3132;42.622;23.328;2022-11-20T03:47:34;8.57;;;8.20;;
6197;SDS011;3132;42.622;23.328;2022-11-20T03:50:00;8.97;;;8.43;;
6197;SDS011;3132;42.622;23.328;2022-11-20T03:52:26;9.07;;;8.57;;
6197;SDS011;3132;42.622;23.328;2022-11-20T03:54:51;9.13;;;8.60;;
6197;SDS011;3132;42.622;23.328;2022-11-20T03:57:16;8.57;;;8.17;;
6197;SDS011;3132;42.622;23.328;2022-11-20T03:59:42;8.10;;;7.70;;
6197;SDS011;3132;42.622;23.328;2022-11-20T04:02:07;8.93;;;8.40;;
6197;SDS011;3132;42.622;23.328;2022-11-20T04:04:32;7.60;;;7.30;;
6197;SDS011;3132;42.622;23.328;2022-11-20T04:06:58;8.03;;;7.73;;
6197;SDS011;3132;42.622;23.328;2022-11-20T04:09:23;8.53;;;8.23;;
6197;SDS011;3132;42.622;23.328;2022-11-20T04:11:48;7.77;;;7.27;;
6197;SDS011;3132;42.622;23.328;2022-11-20T04:14:14;8.50;;;8.00;;
6197;SDS011;3132;42.622;23.328;2022-11-20T04:16:40;8.47;;;7.90;;
6197;SDS011;3132;42.622;23.328;2022-11-20T04:19:09;7.10;;;6.80;;
6197;SDS011;3132;42.622;23.328;2022-11-20T04:21:36;8.03;;;7.63;;
6197;SDS011;3132;42.622;23.328;2022-11-20T04:24:01;8.40;;;8.10;;
6197;SDS011;3132;42.622;23.328;2022-11-20T04:26:27;8.40;;;7.80;;
6197;SDS011;3132;42.622;23.328;2022-11-20T04:28:54;7.87;;;7.50;;
6197;SDS011;3132;42.622;23.328;2022-11-20T04:31:27;8.27;;;7.97;;
6197;SDS011;3132;42.622;23.328;2022-11-20T04:33:54;8.50;;;7.97;;
6197;SDS011;3132;42.622;23.328;2022-11-20T04:36:21;8.97;;;8.53;;
6197;SDS011;3132;42.622;23.328;2022-11-20T04:38:55;7.40;;;7.13;;
6197;SDS011;3132;42.622;23.328;2022-11-20T04:41:26;7.97;;;7.67;;
6197;SDS011;3132;42.622;23.328;2022-11-20T04:43:55;7.60;;;7.30;;
6197;SDS011;3132;42.622;23.328;2022-11-20T04:46:24;8.20;;;7.90;;
6197;SDS011;3132;42.622;23.328;2022-11-20T04:48:51;8.27;;;7.87;;
6197;SDS011;3132;42.622;23.328;2022-11-20T04:51:16;8.10;;;7.80;;
6197;SDS011;3132;42.622;23.328;2022-11-20T04:53:42;7.87;;;7.47;;
6197;SDS011;3132;42.622;23.328;2022-11-20T04:56:08;7.70;;;7.13;;
6197;SDS011;3132;42.622;23.328;2022-11-20T04:58:35;9.83;;;9.30;;
6197;SDS011;3132;42.622;23.328;2022-11-20T05:01:04;7.90;;;7.50;;
6197;SDS011;3132;42.622;23.328;2022-11-20T05:03:38;8.00;;;7.70;;
6197;SDS011;3132;42.622;23.328;2022-11-20T05:06:07;7.10;;;6.90;;
6197;SDS011;3132;42.622;23.328;2022-11-20T05:08:33;8.20;;;7.90;;
6197;SDS011;3132;42.622;23.328;2022-11-20T05:11:02;8.93;;;8.27;;
6197;SDS011;3132;42.622;23.328;2022-11-20T05:13:29;8.10;;;7.70;;
6197;SDS011;3132;42.622;23.328;2022-11-20T05:15:55;7.70;;;7.20;;
6197;SDS011;3132;42.622;23.328;2022-11-20T05:18:20;9.20;;;8.70;;
6197;SDS011;3132;42.622;23.328;2022-11-20T05:20:46;8.30;;;7.90;;
6197;SDS011;3132;42.622;23.328;2022-11-20T05:23:11;7.67;;;7.37;;
6197;SDS011;3132;42.622;23.328;2022-11-20T05:25:36;10.20;;;9.63;;
6197;SDS011;3132;42.622;23.328;2022-11-20T05:28:02;8.30;;;7.87;;
6197;SDS011;3132;42.622;23.328;2022-11-20T05:30:27;8.40;;;8.00;;
6197;SDS011;3132;42.622;23.328;2022-11-20T05:32:53;7.77;;;7.37;;
6197;SDS011;3132;42.622;23.328;2022-11-20T05:35:18;8.37;;;7.97;;
6197;SDS011;3132;42.622;23.328;2022-11-20T05:37:43;8.73;;;8.23;;
6197;SDS011;3132;42.622;23.328;2022-11-20T05:40:09;8.00;;;7.67;;
6197;SDS011;3132;42.622;23.328;2022-11-20T05:42:35;8.80;;;8.20;;
6197;SDS011;3132;42.622;23.328;2022-11-20T05:45:01;9.43;;;8.93;;
6197;SDS011;3132;42.622;23.328;2022-11-20T05:47:32;9.00;;;8.40;;
6197;SDS011;3132;42.622;23.328;2022-11-20T05:49:58;8.60;;;8.10;;
6197;SDS011;3132;42.622;23.328;2022-11-20T05:52:24;7.67;;;7.23;;
6197;SDS011;3132;42.622;23.328;2022-11-20T05:54:49;8.10;;;7.70;;
6197;SDS011;3132;42.622;23.328;2022-11-20T05:57:15;7.40;;;7.03;;
6197;SDS011;3132;42.622;23.328;2022-11-20T05:59:41;8.67;;;8.23;;
6197;SDS011;3132;42.622;23.328;2022-11-20T06:02:06;7.73;;;7.43;;
6197;SDS011;3132;42.622;23.328;2022-11-20T06:04:32;8.23;;;7.77;;
6197;SDS011;3132;42.622;23.328;2022-11-20T06:06:57;8.17;;;7.70;;
6197;SDS011;3132;42.622;23.328;2022-11-20T06:09:22;8.63;;;7.93;;
6197;SDS011;3132;42.622;23.328;2022-11-20T06:11:48;8.33;;;7.83;;
6197;SDS011;3132;42.622;23.328;2022-11-20T06:14:13;8.60;;;8.20;;
6197;SDS011;3132;42.622;23.328;2022-11-20T06:16:38;7.40;;;7.03;;
6197;SDS011;3132;42.622;23.328;2022-11-20T06:19:04;8.43;;;8.03;;
6197;SDS011;3132;42.622;23.328;2022-11-20T06:21:29;9.07;;;8.47;;
6197;SDS011;3132;42.622;23.328;2022-11-20T06:23:54;9.40;;;8.70;;
6197;SDS011;3132;42.622;23.328;2022-11-20T06:26:21;9.13;;;8.50;;
6197;SDS011;3132;42.622;23.328;2022-11-20T06:28:51;8.33;;;7.93;;
6197;SDS011;3132;42.622;23.328;2022-11-20T06:31:18;8.90;;;8.50;;
6197;SDS011;3132;42.622;23.328;2022-11-20T06:33:45;7.50;;;7.10;;
6197;SDS011;3132;42.622;23.328;2022-11-20T06:36:12;8.17;;;7.87;;
6197;SDS011;3132;42.622;23.328;2022-11-20T06:38:39;8.70;;;8.30;;
6197;SDS011;3132;42.622;23.328;2022-11-20T06:41:05;7.73;;;7.43;;
6197;SDS011;3132;42.622;23.328;2022-11-20T06:43:32;8.47;;;8.03;;
6197;SDS011;3132;42.622;23.328;2022-11-20T06:45:58;8.40;;;7.80;;
6197;SDS011;3132;42.622;23.328;2022-11-20T06:48:25;7.57;;;7.27;;
6197;SDS011;3132;42.622;23.328;2022-11-20T06:50:52;9.03;;;8.37;;
6197;SDS011;3132;42.622;23.328;2022-11-20T06:53:17;7.17;;;6.87;;
6197;SDS011;3132;42.622;23.328;2022-11-20T06:55:43;7.80;;;7.40;;
6197;SDS011;3132;42.622;23.328;2022-11-20T06:58:09;7.97;;;7.33;;
6197;SDS011;3132;42.622;23.328;2022-11-20T07:00:35;7.97;;;7.57;;
6197;SDS011;3132;42.622;23.328;2022-11-20T07:03:03;8.90;;;8.40;;
6197;SDS011;3132;42.622;23.328;2022-11-20T07:05:29;8.27;;;7.90;;
6197;SDS011;3132;42.622;23.328;2022-11-20T07:07:55;6.97;;;6.77;;
6197;SDS011;3132;42.622;23.328;2022-11-20T07:10:21;7.53;;;7.13;;
6197;SDS011;3132;42.622;23.328;2022-11-20T07:12:50;9.13;;;8.53;;
6197;SDS011;3132;42.622;23.328;2022-11-20T07:15:17;8.43;;;7.93;;
6197;SDS011;3132;42.622;23.328;2022-11-20T07:17:43;7.50;;;7.03;;
6197;SDS011;3132;42.622;23.328;2022-11-20T07:20:09;8.17;;;7.57;;
6197;SDS011;3132;42.622;23.328;2022-11-20T07:22:34;7.90;;;7.57;;
6197;SDS011;3132;42.622;23.328;2022-11-20T07:25:00;8.23;;;7.87;;
6197;SDS011;3132;42.622;23.328;2022-11-20T07:27:26;7.80;;;7.47;;
6197;SDS011;3132;42.622;23.328;2022-11-20T07:29:52;8.47;;;7.87;;
6197;SDS011;3132;42.622;23.328;2022-11-20T07:32:17;8.17;;;7.77;;
6197;SDS011;3132;42.622;23.328;2022-11-20T07:34:42;7.93;;;7.43;;
6197;SDS011;3132;42.622;23.328;2022-11-20T07:37:07;8.33;;;7.67;;
6197;SDS011;3132;42.622;23.328;2022-11-20T07:39:33;8.43;;;8.03;;
6197;SDS011;3132;42.622;23.328;2022-11-20T07:41:58;8.43;;;7.67;;
6197;SDS011;3132;42.622;23.328;2022-11-20T07:44:23;9.50;;;8.33;;
6197;SDS011;3132;42.622;23.328;2022-11-20T07:46:49;7.97;;;7.17;;
6197;SDS011;3132;42.622;23.328;2022-11-20T07:49:14;8.03;;;7.70;;
6197;SDS011;3132;42.622;23.328;2022-11-20T07:51:39;8.63;;;7.70;;
6197;SDS011;3132;42.622;23.328;2022-11-20T07:54:05;7.93;;;7.40;;
6197;SDS011;3132;42.622;23.328;2022-11-20T07:56:30;8.67;;;8.00;;
6197;SDS011;3132;42.622;23.328;2022-11-20T07:58:55;8.57;;;7.90;;
6197;SDS011;3132;42.622;23.328;2022-11-20T08:01:21;8.23;;;7.83;;
6197;SDS011;3132;42.622;23.328;2022-11-20T08:03:46;9.43;;;8.57;;
6197;SDS011;3132;42.622;23.328;2022-11-20T08:06:11;8.37;;;7.80;;
6197;SDS011;3132;42.622;23.328;2022-11-20T08:08:37;8.43;;;7.60;;
6197;SDS011;3132;42.622;23.328;2022-11-20T08:11:04;8.50;;;8.00;;
6197;SDS011;3132;42.622;23.328;2022-11-20T08:13:48;9.23;;;8.53;;
6197;SDS011;3132;42.622;23.328;2022-11-20T08:16:32;7.80;;;7.20;;
6197;SDS011;3132;42.622;23.328;2022-11-20T08:18:58;8.63;;;8.13;;
6197;SDS011;3132;42.622;23.328;2022-11-20T08:21:23;8.57;;;8.07;;
6197;SDS011;3132;42.622;23.328;2022-11-20T08:23:49;8.93;;;8.43;;
6197;SDS011;3132;42.622;23.328;2022-11-20T08:26:14;7.73;;;7.33;;
6197;SDS011;3132;42.622;23.328;2022-11-20T08:28:39;8.23;;;7.63;;
6197;SDS011;3132;42.622;23.328;2022-11-20T08:31:05;8.00;;;7.47;;
6197;SDS011;3132;42.622;23.328;2022-11-20T08:33:30;8.00;;;7.20;;
6197;SDS011;3132;42.622;23.328;2022-11-20T08:36:00;8.30;;;7.80;;
6197;SDS011;3132;42.622;23.328;2022-11-20T08:38:27;8.60;;;8.20;;
6197;SDS011;3132;42.622;23.328;2022-11-20T08:40:55;8.27;;;7.73;;
6197;SDS011;3132;42.622;23.328;2022-11-20T08:43:41;9.87;;;8.67;;
6197;SDS011;3132;42.622;23.328;2022-11-20T08:46:06;7.70;;;7.30;;
6197;SDS011;3132;42.622;23.328;2022-11-20T08:48:31;8.20;;;7.60;;
6197;SDS011;3132;42.622;23.328;2022-11-20T08:51:00;8.83;;;8.00;;
6197;SDS011;3132;42.622;23.328;2022-11-20T08:53:25;9.93;;;7.33;;
6197;SDS011;3132;42.622;23.328;2022-11-20T08:55:51;8.43;;;8.00;;
6197;SDS011;3132;42.622;23.328;2022-11-20T08:58:17;8.80;;;8.23;;
6197;SDS011;3132;42.622;23.328;2022-11-20T09:00:42;10.53;;;9.70;;
6197;SDS011;3132;42.622;23.328;2022-11-20T09:03:08;9.70;;;9.13;;
6197;SDS011;3132;42.622;23.328;2022-11-20T09:05:33;9.27;;;8.47;;
6197;SDS011;3132;42.622;23.328;2022-11-20T09:07:59;10.03;;;9.27;;
6197;SDS011;3132;42.622;23.328;2022-11-20T09:10:25;10.87;;;10.00;;
6197;SDS011;3132;42.622;23.328;2022-11-20T09:12:53;10.03;;;9.13;;
6197;SDS011;3132;42.622;23.328;2022-11-20T09:15:20;10.10;;;9.40;;
6197;SDS011;3132;42.622;23.328;2022-11-20T09:17:52;8.23;;;7.80;;
6197;SDS011;3132;42.622;23.328;2022-11-20T09:20:17;11.03;;;9.90;;
6197;SDS011;3132;42.622;23.328;2022-11-20T09:22:43;9.07;;;8.57;;
6197;SDS011;3132;42.622;23.328;2022-11-20T09:25:08;9.77;;;9.13;;
6197;SDS011;3132;42.622;23.328;2022-11-20T09:27:34;10.17;;;9.47;;
6197;SDS011;3132;42.622;23.328;2022-11-20T09:30:00;10.77;;;10.13;;
6197;SDS011;3132;42.622;23.328;2022-11-20T09:32:26;11.20;;;10.00;;
6197;SDS011;3132;42.622;23.328;2022-11-20T09:34:51;8.93;;;8.53;;
6197;SDS011;3132;42.622;23.328;2022-11-20T09:37:16;8.80;;;8.27;;
6197;SDS011;3132;42.622;23.328;2022-11-20T09:39:42;9.00;;;8.03;;
6197;SDS011;3132;42.622;23.328;2022-11-20T09:42:20;9.37;;;8.87;;
6197;SDS011;3132;42.622;23.328;2022-11-20T09:50:28;9.83;;;9.03;;
6197;SDS011;3132;42.622;23.328;2022-11-20T09:55:21;9.37;;;8.73;;
6197;SDS011;3132;42.622;23.328;2022-11-20T09:57:47;8.63;;;8.10;;
6197;SDS011;3132;42.622;23.328;2022-11-20T10:00:16;9.97;;;9.30;;
6197;SDS011;3132;42.622;23.328;2022-11-20T10:02:49;10.23;;;9.30;;
6197;SDS011;3132;42.622;23.328;2022-11-20T10:05:33;11.10;;;10.10;;
6197;SDS011;3132;42.622;23.328;2022-11-20T10:19:45;11.17;;;10.20;;
6197;SDS011;3132;42.622;23.328;2022-11-20T10:21:55;10.37;;;9.57;;
6197;SDS011;3132;42.622;23.328;2022-11-20T10:30:02;10.17;;;9.40;;
6197;SDS011;3132;42.622;23.328;2022-11-20T10:32:37;9.97;;;9.17;;
6197;SDS011;3132;42.622;23.328;2022-11-20T10:35:48;9.77;;;9.13;;
6197;SDS011;3132;42.622;23.328;2022-11-20T10:37:59;9.87;;;9.17;;
6197;SDS011;3132;42.622;23.328;2022-11-20T10:43:00;10.73;;;9.63;;
6197;SDS011;3132;42.622;23.328;2022-11-20T10:45:43;14.13;;;12.57;;
6197;SDS011;3132;42.622;23.328;2022-11-20T10:50:39;18.73;;;13.87;;
6197;SDS011;3132;42.622;23.328;2022-11-20T10:56:28;12.80;;;11.50;;
6197;SDS011;3132;42.622;23.328;2022-11-20T10:59:47;12.17;;;10.10;;
6197;SDS011;3132;42.622;23.328;2022-11-20T11:01:57;11.57;;;10.63;;
6197;SDS011;3132;42.622;23.328;2022-11-20T11:06:58;11.53;;;10.43;;
6197;SDS011;3132;42.622;23.328;2022-11-20T11:09:37;9.83;;;8.93;;
6197;SDS011;3132;42.622;23.328;2022-11-20T11:12:08;11.90;;;10.93;;
6197;SDS011;3132;42.622;23.328;2022-11-20T11:17:20;9.97;;;8.77;;
6197;SDS011;3132;42.622;23.328;2022-11-20T11:19:56;10.37;;;9.40;;
6197;SDS011;3132;42.622;23.328;2022-11-20T11:22:49;8.43;;;7.93;;
6197;SDS011;3132;42.622;23.328;2022-11-20T11:25:23;8.83;;;8.33;;
6197;SDS011;3132;42.622;23.328;2022-11-20T11:27:50;9.27;;;8.73;;
6197;SDS011;3132;42.622;23.328;2022-11-20T11:30:18;9.73;;;9.23;;
6197;SDS011;3132;42.622;23.328;2022-11-20T11:32:44;8.07;;;7.77;;
6197;SDS011;3132;42.622;23.328;2022-11-20T11:35:18;8.30;;;7.90;;
6197;SDS011;3132;42.622;23.328;2022-11-20T11:37:53;9.83;;;9.23;;
6197;SDS011;3132;42.622;23.328;2022-11-20T11:40:26;8.20;;;7.80;;
6197;SDS011;3132;42.622;23.328;2022-11-20T11:42:59;8.93;;;8.53;;
6197;SDS011;3132;42.622;23.328;2022-11-20T11:45:29;9.67;;;9.27;;
6197;SDS011;3132;42.622;23.328;2022-11-20T11:47:56;9.43;;;9.03;;
6197;SDS011;3132;42.622;23.328;2022-11-20T11:50:24;8.97;;;8.40;;
6197;SDS011;3132;42.622;23.328;2022-11-20T11:55:28;9.60;;;9.00;;
6197;SDS011;3132;42.622;23.328;2022-11-20T12:01:06;8.30;;;7.80;;
6197;SDS011;3132;42.622;23.328;2022-11-20T12:03:37;8.83;;;8.30;;
6197;SDS011;3132;42.622;23.328;2022-11-20T12:06:10;8.23;;;7.73;;
6197;SDS011;3132;42.622;23.328;2022-11-20T12:14:16;8.03;;;7.63;;
6197;SDS011;3132;42.622;23.328;2022-11-20T12:17:00;8.03;;;7.70;;
6197;SDS011;3132;42.622;23.328;2022-11-20T12:19:27;8.43;;;8.03;;
6197;SDS011;3132;42.622;23.328;2022-11-20T12:25:04;9.23;;;8.63;;
6197;SDS011;3132;42.622;23.328;2022-11-20T12:30:30;8.00;;;7.70;;
6197;SDS011;3132;42.622;23.328;2022-11-20T12:39:02;8.43;;;8.13;;
6197;SDS011;3132;42.622;23.328;2022-11-20T12:59:02;8.00;;;7.70;;
6197;SDS011;3132;42.622;23.328;2022-11-20T13:06:41;8.77;;;8.20;;
6197;SDS011;3132;42.622;23.328;2022-11-20T13:09:08;9.00;;;8.20;;
6197;SDS011;3132;42.622;23.328;2022-11-20T13:11:43;8.43;;;7.63;;
6197;SDS011;3132;42.622;23.328;2022-11-20T13:19:31;9.20;;;8.70;;
6197;SDS011;3132;42.622;23.328;2022-11-20T13:21:57;9.40;;;8.60;;
6197;SDS011;3132;42.622;23.328;2022-11-20T13:24:24;9.33;;;8.83;;
6197;SDS011;3132;42.622;23.328;2022-11-20T13:27:01;11.07;;;10.10;;
6197;SDS011;3132;42.622;23.328;2022-11-20T13:29:27;10.93;;;9.97;;
6197;SDS011;3132;42.622;23.328;2022-11-20T13:32:00;9.67;;;8.93;;
6197;SDS011;3132;42.622;23.328;2022-11-20T13:34:31;10.40;;;9.57;;
6197;SDS011;3132;42.622;23.328;2022-11-20T13:36:57;10.33;;;9.60;;
6197;SDS011;3132;42.622;23.328;2022-11-20T13:42:37;9.37;;;8.77;;
6197;SDS011;3132;42.622;23.328;2022-11-20T13:44:50;10.00;;;9.23;;
6197;SDS011;3132;42.622;23.328;2022-11-20T13:47:23;10.87;;;10.03;;
6197;SDS011;3132;42.622;23.328;2022-11-20T13:49:51;10.43;;;9.73;;
6197;SDS011;3132;42.622;23.328;2022-11-20T14:01:28;10.57;;;9.87;;
6197;SDS011;3132;42.622;23.328;2022-11-20T14:03:41;11.50;;;10.63;;
6197;SDS011;3132;42.622;23.328;2022-11-20T14:08:56;16.17;;;13.57;;
6197;SDS011;3132;42.622;23.328;2022-11-20T14:11:23;12.90;;;11.53;;
6197;SDS011;3132;42.622;23.328;2022-11-20T14:14:33;13.30;;;12.10;;
6197;SDS011;3132;42.622;23.328;2022-11-20T14:16:44;15.40;;;13.83;;
6197;SDS011;3132;42.622;23.328;2022-11-20T14:21:44;15.70;;;14.17;;
6197;SDS011;3132;42.622;23.328;2022-11-20T14:24:11;14.73;;;13.30;;
6197;SDS011;3132;42.622;23.328;2022-11-20T14:26:43;14.47;;;12.70;;
6197;SDS011;3132;42.622;23.328;2022-11-20T14:29:27;14.27;;;12.87;;
6197;SDS011;3132;42.622;23.328;2022-11-20T14:31:55;14.13;;;12.80;;
6197;SDS011;3132;42.622;23.328;2022-11-20T14:34:23;15.83;;;14.43;;
6197;SDS011;3132;42.622;23.328;2022-11-20T14:36:52;14.20;;;12.90;;
6197;SDS011;3132;42.622;23.328;2022-11-20T14:39:22;14.73;;;13.43;;
6197;SDS011;3132;42.622;23.328;2022-11-20T14:41:53;13.77;;;12.47;;
6197;SDS011;3132;42.622;23.328;2022-11-20T14:44:26;16.47;;;14.90;;
6197;SDS011;3132;42.622;23.328;2022-11-20T14:46:54;15.03;;;13.50;;
6197;SDS011;3132;42.622;23.328;2022-11-20T14:49:20;16.20;;;14.57;;
6197;SDS011;3132;42.622;23.328;2022-11-20T14:51:46;14.87;;;13.43;;
6197;SDS011;3132;42.622;23.328;2022-11-20T14:54:18;21.70;;;14.10;;
6197;SDS011;3132;42.622;23.328;2022-11-20T14:56:54;14.73;;;13.00;;
6197;SDS011;3132;42.622;23.328;2022-11-20T14:59:27;12.50;;;11.60;;
6197;SDS011;3132;42.622;23.328;2022-11-20T15:02:05;11.53;;;10.67;;
6197;SDS011;3132;42.622;23.328;2022-11-20T15:04:43;12.07;;;11.07;;
6197;SDS011;3132;42.622;23.328;2022-11-20T15:07:22;10.50;;;9.60;;
6197;SDS011;3132;42.622;23.328;2022-11-20T15:09:59;11.30;;;10.40;;
6197;SDS011;3132;42.622;23.328;2022-11-20T15:12:29;11.93;;;10.93;;
6197;SDS011;3132;42.622;23.328;2022-11-20T15:14:56;11.03;;;10.13;;
6197;SDS011;3132;42.622;23.328;2022-11-20T15:17:22;13.40;;;12.30;;
6197;SDS011;3132;42.622;23.328;2022-11-20T15:19:47;11.87;;;10.67;;
6197;SDS011;3132;42.622;23.328;2022-11-20T15:22:13;10.97;;;10.27;;
6197;SDS011;3132;42.622;23.328;2022-11-20T15:24:38;10.57;;;9.87;;
6197;SDS011;3132;42.622;23.328;2022-11-20T15:27:04;11.60;;;10.80;;
6197;SDS011;3132;42.622;23.328;2022-11-20T15:29:29;13.57;;;12.47;;
6197;SDS011;3132;42.622;23.328;2022-11-20T15:31:55;12.07;;;10.90;;
6197;SDS011;3132;42.622;23.328;2022-11-20T15:34:21;11.87;;;10.97;;
6197;SDS011;3132;42.622;23.328;2022-11-20T15:36:46;10.03;;;9.50;;
6197;SDS011;3132;42.622;23.328;2022-11-20T15:39:11;10.43;;;9.93;;
6197;SDS011;3132;42.622;23.328;2022-11-20T15:41:37;11.33;;;10.63;;
6197;SDS011;3132;42.622;23.328;2022-11-20T15:44:03;11.73;;;10.93;;
6197;SDS011;3132;42.622;23.328;2022-11-20T15:46:30;12.70;;;11.67;;
6197;SDS011;3132;42.622;23.328;2022-11-20T15:49:02;11.73;;;10.83;;
6197;SDS011;3132;42.622;23.328;2022-11-20T15:51:35;10.67;;;9.93;;
6197;SDS011;3132;42.622;23.328;2022-11-20T15:54:12;10.43;;;9.83;;
6197;SDS011;3132;42.622;23.328;2022-11-20T15:56:46;9.90;;;9.27;;
6197;SDS011;3132;42.622;23.328;2022-11-20T15:59:12;9.47;;;8.77;;
6197;SDS011;3132;42.622;23.328;2022-11-20T16:01:39;9.90;;;9.30;;
6197;SDS011;3132;42.622;23.328;2022-11-20T16:04:09;8.87;;;8.47;;
6197;SDS011;3132;42.622;23.328;2022-11-20T16:06:39;11.23;;;10.23;;
6197;SDS011;3132;42.622;23.328;2022-11-20T16:09:05;10.50;;;9.60;;
6197;SDS011;3132;42.622;23.328;2022-11-20T16:11:31;9.40;;;8.80;;
6197;SDS011;3132;42.622;23.328;2022-11-20T16:13:57;10.27;;;9.47;;
6197;SDS011;3132;42.622;23.328;2022-11-20T16:16:51;9.60;;;9.10;;
6197;SDS011;3132;42.622;23.328;2022-11-20T16:19:17;10.33;;;9.73;;
6197;SDS011;3132;42.622;23.328;2022-11-20T16:21:43;10.67;;;9.97;;
6197;SDS011;3132;42.622;23.328;2022-11-20T16:24:10;10.30;;;9.70;;
6197;SDS011;3132;42.622;23.328;2022-11-20T16:26:38;10.00;;;9.40;;
6197;SDS011;3132;42.622;23.328;2022-11-20T16:29:04;9.47;;;9.03;;
6197;SDS011;3132;42.622;23.328;2022-11-20T16:31:31;10.37;;;9.77;;
6197;SDS011;3132;42.622;23.328;2022-11-20T16:34:00;10.10;;;9.40;;
6197;SDS011;3132;42.622;23.328;2022-11-20T16:36:28;10.00;;;9.40;;
6197;SDS011;3132;42.622;23.328;2022-11-20T16:38:55;9.77;;;8.83;;
6197;SDS011;3132;42.622;23.328;2022-11-20T16:41:22;9.50;;;9.00;;
6197;SDS011;3132;42.622;23.328;2022-11-20T16:43:51;8.20;;;7.90;;
6197;SDS011;3132;42.622;23.328;2022-11-20T16:46:28;8.83;;;8.47;;
6197;SDS011;3132;42.622;23.328;2022-11-20T16:51:20;8.77;;;8.40;;
6197;SDS011;3132;42.622;23.328;2022-11-20T16:53:46;8.37;;;7.97;;
6197;SDS011;3132;42.622;23.328;2022-11-20T16:56:14;9.73;;;9.13;;
6197;SDS011;3132;42.622;23.328;2022-11-20T16:58:42;10.13;;;9.33;;